createdAt,value
2018-11-20T00:02:19.569Z,1.90
2018-11-20T00:06:28.453Z,2.30
2018-11-20T00:11:10.201Z,2.30
2018-11-20T00:15:35.961Z,2.10
2018-11-20T00:20:42.774Z,2.10
2018-11-20T00:25:50.014Z,2.10
2018-11-20T00:29:56.855Z,2.10
2018-11-20T00:34:07.682Z,3.70
2018-11-20T00:38:15.779Z,1.90
2018-11-20T00:42:23.666Z,2.70
2018-11-20T00:48:35.204Z,2.10
2018-11-20T00:52:43.244Z,1.30
2018-11-20T00:57:21.399Z,1.60
2018-11-20T01:01:49.337Z,1.50
2018-11-20T01:06:02.955Z,1.90
2018-11-20T01:10:15.546Z,1.40
2018-11-20T01:14:24.448Z,1.10
2018-11-20T01:19:35.183Z,1.20
2018-11-20T01:24:42.703Z,2.00
2018-11-20T01:30:54.195Z,1.70
2018-11-20T01:35:02.188Z,1.90
2018-11-20T01:39:18.444Z,2.60
2018-11-20T01:43:26.220Z,2.60
2018-11-20T01:49:41.253Z,1.80
2018-11-20T01:53:59.055Z,2.50
2018-11-20T01:58:08.640Z,2.80
2018-11-20T02:02:21.665Z,2.70
2018-11-20T02:08:36.232Z,2.40
2018-11-20T02:14:47.595Z,2.40
2018-11-20T02:19:04.472Z,2.00
2018-11-20T02:23:13.018Z,2.40
2018-11-20T02:27:19.899Z,1.80
2018-11-20T02:31:27.695Z,3.00
2018-11-20T02:35:39.333Z,2.20
2018-11-20T02:39:47.262Z,1.90
2018-11-20T02:43:55.285Z,1.60
2018-11-20T02:48:07.073Z,2.30
2018-11-20T02:52:18.984Z,1.80
2018-11-20T02:56:26.953Z,2.20
2018-11-20T03:01:33.390Z,2.60
2018-11-20T03:05:42.409Z,3.70
2018-11-20T03:09:55.738Z,2.30
2018-11-20T03:14:05.699Z,1.70
2018-11-20T03:20:20.500Z,2.00
2018-11-20T03:24:28.512Z,1.70
2018-11-20T03:28:45.752Z,2.20
2018-11-20T03:32:52.588Z,2.00
2018-11-20T03:39:07.337Z,1.90
2018-11-20T03:43:18.150Z,2.60
2018-11-20T03:47:26.095Z,1.10
2018-11-20T03:51:36.990Z,1.00
2018-11-20T03:55:46.769Z,1.80
2018-11-20T04:00:02.535Z,1.10
2018-11-20T04:06:13.088Z,0.70
2018-11-20T04:10:22.409Z,1.00
2018-11-20T04:14:30.365Z,1.40
2018-11-20T04:18:40.958Z,1.70
2018-11-20T04:22:49.007Z,1.30
2018-11-20T04:26:56.902Z,1.60
2018-11-20T04:33:20.224Z,2.00
2018-11-20T04:37:46.137Z,2.60
2018-11-20T04:41:59.029Z,1.40
2018-11-20T04:46:07.151Z,2.00
2018-11-20T04:50:14.037Z,1.80
2018-11-20T04:54:25.904Z,1.00
2018-11-20T04:58:37.603Z,1.30
2018-11-20T05:02:46.301Z,2.30
2018-11-20T05:06:54.250Z,1.40
2018-11-20T05:11:05.922Z,1.50
2018-11-20T05:15:13.862Z,1.30
2018-11-20T05:20:19.796Z,2.30
2018-11-20T05:24:27.675Z,1.40
2018-11-20T05:28:53.632Z,1.10
2018-11-20T05:33:03.563Z,1.90
2018-11-20T05:39:14.938Z,1.40
2018-11-20T05:43:23.387Z,1.00
2018-11-20T05:47:34.099Z,1.20
2018-11-20T05:52:40.742Z,1.20
2018-11-20T05:56:49.572Z,1.20
2018-11-20T06:01:58.096Z,1.40
2018-11-20T06:06:07.083Z,1.60
2018-11-20T06:10:17.291Z,2.30
2018-11-20T06:14:36.933Z,2.00
2018-11-20T06:19:44.661Z,1.90
2018-11-20T06:23:52.659Z,2.30
2018-11-20T06:28:00.507Z,2.30
2018-11-20T06:34:13.351Z,3.60
2018-11-20T06:38:55.736Z,2.70
2018-11-20T06:44:01.302Z,2.10
2018-11-20T06:48:08.649Z,3.10
2018-11-20T06:53:22.296Z,3.20
2018-11-20T06:57:50.861Z,2.50
2018-11-20T07:02:01.681Z,2.20
2018-11-20T07:06:09.733Z,3.40
2018-11-20T07:12:22.015Z,2.90
2018-11-20T07:16:35.670Z,2.10
2018-11-20T07:20:53.728Z,3.10
2018-11-20T07:25:05.947Z,2.60
2018-11-20T07:29:29.021Z,3.10
2018-11-20T07:35:44.057Z,3.50
2018-11-20T07:40:10.103Z,4.30
2018-11-20T07:44:20.882Z,3.60
2018-11-20T07:48:29.036Z,4.80
2018-11-20T07:52:44.318Z,4.90
2018-11-20T07:56:52.437Z,5.30
2018-11-20T08:01:01.145Z,5.40
2018-11-20T08:05:11.395Z,4.10
2018-11-20T08:09:20.253Z,4.00
2018-11-20T08:15:31.884Z,5.10
2018-11-20T08:19:42.282Z,3.80
2018-11-20T08:24:58.532Z,3.50
2018-11-20T08:29:11.676Z,3.30
2018-11-20T08:34:24.502Z,4.40
2018-11-20T08:38:32.432Z,5.20
2018-11-20T08:42:46.306Z,4.10
2018-11-20T08:46:56.200Z,3.30
2018-11-20T08:51:39.490Z,4.50
2018-11-20T08:55:47.697Z,5.30
2018-11-20T08:59:58.587Z,3.70
2018-11-20T09:04:08.235Z,4.50
2018-11-20T09:08:21.656Z,2.80
2018-11-20T09:13:28.136Z,3.80
2018-11-20T09:17:36.814Z,2.60
2018-11-20T09:21:44.716Z,5.00
2018-11-20T09:27:58.109Z,5.00
2018-11-20T09:32:06.502Z,5.30
2018-11-20T09:36:50.294Z,3.80
2018-11-20T09:41:15.390Z,5.20
2018-11-20T09:46:06.596Z,4.60
2018-11-20T09:50:16.215Z,5.50
2018-11-20T09:54:30.716Z,4.90
2018-11-20T09:59:37.420Z,5.50
2018-11-20T10:03:46.120Z,5.90
2018-11-20T10:07:52.981Z,4.60
2018-11-20T10:12:01.735Z,4.50
2018-11-20T10:16:13.575Z,4.20
2018-11-20T10:21:21.109Z,4.50
2018-11-20T10:25:37.091Z,4.00
2018-11-20T10:29:45.039Z,4.30
2018-11-20T10:33:53.892Z,4.10
2018-11-20T10:38:59.367Z,3.80
2018-11-20T10:43:39.113Z,3.90
2018-11-20T10:48:51.477Z,3.60
2018-11-20T10:52:59.463Z,3.30
2018-11-20T10:58:06.552Z,3.60
2018-11-20T11:02:14.485Z,2.90
2018-11-20T11:06:23.756Z,4.20
2018-11-20T11:12:36.283Z,3.80
2018-11-20T11:16:46.164Z,3.70
2018-11-20T11:20:57.121Z,3.80
2018-11-20T11:25:09.173Z,4.30
2018-11-20T11:29:17.682Z,4.30
2018-11-20T11:33:28.898Z,4.20
2018-11-20T11:37:36.611Z,3.40
2018-11-20T11:41:44.560Z,2.60
2018-11-20T11:45:52.710Z,3.20
2018-11-20T11:50:21.676Z,3.40
2018-11-20T11:54:29.702Z,3.60
2018-11-20T11:58:37.500Z,4.40
